WetterOnline ( https://www.wetteronline.de )

Wetter aktuell Helgoland

Aktuelles Wetter: Helgoland/Düne (8m)

6-stündlich | Neueste Meldungen
Ortszeit Temperatur Wetter
So, 04.12. 13:00 4.8° C bedeckt
So, 04.12. 7:00 3.1° C bedeckt
So, 04.12. 1:00 4.0° C bedeckt
Sa, 03.12. 19:00 4.6° C bedeckt
Sa, 03.12. 13:00 4.0° C Sprühregen
Sa, 03.12. 7:00 4.8° C bedeckt
Sa, 03.12. 1:00 5.8° C bedeckt
Fr, 02.12. 19:00 5.4° C bedeckt
Ortszeit Temperatur Wetter
So, 04.12. 18:00 5.1° C bedeckt
So, 04.12. 17:50 5.1° C bedeckt
So, 04.12. 17:40 5.3° C bedeckt
So, 04.12. 17:30 5.1° C bewölkt
So, 04.12. 17:20 5.1° C bewölkt
So, 04.12. 17:10 5.1° C bewölkt
So, 04.12. 17:00 5.1° C bedeckt
So, 04.12. 16:30 5.2° C bedeckt
So, 04.12. 16:00 5.3° C bedeckt
So, 04.12. 15:30 5.3° C bedeckt
So, 04.12. 15:00 5.1° C bedeckt
Ortszeit Relative Feuchte Sichtweite
So, 04.12. 13:00 81% 20 km
So, 04.12. 7:00 81% 18 km
So, 04.12. 1:00 77% 29 km
Sa, 03.12. 19:00 83% 30 km
Sa, 03.12. 13:00 89% 27 km
Sa, 03.12. 7:00 84% 24 km
Sa, 03.12. 1:00 88% 26 km
Fr, 02.12. 19:00 78% 25 km
Ortszeit Relative Feuchte Sichtweite
So, 04.12. 18:00 86% 23 km
So, 04.12. 17:50 86% -
So, 04.12. 17:40 88% -
So, 04.12. 17:30 86% 22 km
So, 04.12. 17:20 86% -
So, 04.12. 17:10 87% -
So, 04.12. 17:00 86% 24 km
So, 04.12. 16:30 83% 26 km
So, 04.12. 16:00 82% 20 km
So, 04.12. 15:30 80% 20 km
So, 04.12. 15:00 79% 20 km
Ortszeit Niederschlagsmenge Niederschlagsart
So, 04.12. 13:00 0.0 l/m2 in 6 Std. -
So, 04.12. 7:00 0.4 l/m2 in 12 Std. -
So, 04.12. 1:00 0.4 l/m2 in 6 Std. Regen
Sa, 03.12. 19:00 1 l/m2 in 12 Std. Regen
Sa, 03.12. 13:00 1 l/m2 in 6 Std. Regen
Sa, 03.12. 7:00 0.1 l/m2 in 12 Std. -
Sa, 03.12. 1:00 0.1 l/m2 in 6 Std. Regen
Fr, 02.12. 19:00 0.3 l/m2 in 12 Std. -
Ortszeit Niederschlagsmenge Niederschlagsart
So, 04.12. 18:00 0.0 l/m2 in 1 Std. -
So, 04.12. 17:50 keine Meldung -
So, 04.12. 17:40 keine Meldung -
So, 04.12. 17:30 0.0 l/m2 in 30 Min -
So, 04.12. 17:20 keine Meldung -
So, 04.12. 17:10 keine Meldung -
So, 04.12. 17:00 0.0 l/m2 in 1 Std. -
So, 04.12. 16:30 0.0 l/m2 in 30 Min -
So, 04.12. 16:00 0.0 l/m2 in 1 Std. -
So, 04.12. 15:30 0.0 l/m2 in 30 Min -
So, 04.12. 15:00 0.0 l/m2 in 1 Std. -
Ortszeit Stärke Spitze Richtung
km/h Bft. km/h Grad Sektor
So, 04.12. 13:00 35 5 50 80° O
So, 04.12. 7:00 33 5 59 80° O
So, 04.12. 1:00 43 6 59 80° O
Sa, 03.12. 19:00 35 5 50 80° O
Sa, 03.12. 13:00 31 5 50 70° O
Sa, 03.12. 7:00 39 6 57 60° NO
Sa, 03.12. 1:00 40 6 54 60° NO
Fr, 02.12. 19:00 31 5 50 60° NO
Ortszeit Stärke Spitze Richtung
km/h Bft. km/h Grad Sektor
So, 04.12. 18:00 39 6 46 60° NO
So, 04.12. 17:50 39 6 - 60° NO
So, 04.12. 17:40 36 5 - 60° NO
So, 04.12. 17:30 33 5 46 60° NO
So, 04.12. 17:20 33 5 - 60° NO
So, 04.12. 17:10 33 5 - 60° NO
So, 04.12. 17:00 33 5 43 60° NO
So, 04.12. 16:30 35 5 43 60° NO
So, 04.12. 16:00 31 5 46 70° O
So, 04.12. 15:30 33 5 44 70° O
So, 04.12. 15:00 39 6 50 80° O
Ortszeit Untergrenze Bedeckung Gattung
total tief tief mittel hoch
So, 04.12. 13:00 450 m 8/8 8/8 - - -
So, 04.12. 7:00 480 m 8/8 8/8 - - -
So, 04.12. 1:00 510 m 8/8 8/8 - - -
Sa, 03.12. 19:00 420 m 8/8 8/8 - - -
Sa, 03.12. 13:00 300 m 8/8 8/8 - - -
Sa, 03.12. 7:00 360 m 8/8 8/8 - - -
Sa, 03.12. 1:00 300 m 8/8 8/8 - - -
Fr, 02.12. 19:00 510 m 8/8 8/8 - - -
Ortszeit Bedeckungsgrad in Achtel und Wolkenuntergrenze
So, 04.12. 18:00 6(330m) 7(510m) 8(1080m)
So, 04.12. 17:50 6(330m) 7(510m) 8(1080m)
So, 04.12. 17:40 8
So, 04.12. 17:30 5(330m) 7(480m) 7(630m)
So, 04.12. 17:20 5(330m) 7(480m) 7(630m)
So, 04.12. 17:10 7
So, 04.12. 17:00 3(300m) 7(480m) 8(900m)
So, 04.12. 16:30 2(450m) 3(600m) 8(870m)
So, 04.12. 16:00 3(450m) 7(780m) 8(930m)
So, 04.12. 15:30 6(540m) 7(660m) 8(1020m)
So, 04.12. 15:00 4(540m) 8(1020m)
Ortszeit Luftdruck NN (hPa) Tendenz (hPa in 3 Std.)
So, 04.12. 13:00 1023 - 0,3
So, 04.12. 7:00 1023 + 0,5
So, 04.12. 1:00 1022 - 0,7
Sa, 03.12. 19:00 1023 - 0,7
Sa, 03.12. 13:00 1025 - 1,1
Sa, 03.12. 7:00 1027 - 0,5
Sa, 03.12. 1:00 1028 - 0,7
Fr, 02.12. 19:00 1029 + 0,4
Ortszeit Luftdruck NN (hPa) Tendenz (hPa in 3 Std.)
So, 04.12. 18:00 1022 0,0
So, 04.12. 17:50 1022 keine Meldung
So, 04.12. 17:40 1022 keine Meldung
So, 04.12. 17:30 1022 - 0,2
So, 04.12. 17:20 1022 keine Meldung
So, 04.12. 17:10 1022 keine Meldung
So, 04.12. 17:00 1022 - 0,2
So, 04.12. 16:30 1022 - 0,3
So, 04.12. 16:00 1022 - 0,5
So, 04.12. 15:30 1022 - 0,7
So, 04.12. 15:00 1022 - 1,1
Ortszeit Schneehöhe (cm)
So, 04.12. 13:00 0
So, 04.12. 7:00 0
So, 04.12. 1:00 0
Sa, 03.12. 19:00 0
Sa, 03.12. 13:00 0
Sa, 03.12. 7:00 0
Sa, 03.12. 1:00 0
Fr, 02.12. 19:00 0
Ortszeit Schneehöhe (cm)
So, 04.12. 18:00 0
So, 04.12. 17:50 0
So, 04.12. 17:40 0
So, 04.12. 17:30 0
So, 04.12. 17:20 0
So, 04.12. 17:10 0
So, 04.12. 17:00 0
So, 04.12. 16:30 0
So, 04.12. 16:00 0
So, 04.12. 15:30 0
So, 04.12. 15:00 0
Link zu dieser Seite / Seite empfehlen

Das Wetter in ...